sensor_id;sensor_type;location;lat;lon;timestamp;P1;durP1;ratioP1;P2;durP2;ratioP2
77136;SDS011;66102;48.542;-2.970;2023-04-25T00:01:17;9.07;;;3.20;;
77136;SDS011;66102;48.542;-2.970;2023-04-25T00:03:44;9.80;;;3.40;;
77136;SDS011;66102;48.542;-2.970;2023-04-25T00:06:10;9.85;;;3.05;;
77136;SDS011;66102;48.542;-2.970;2023-04-25T00:08:36;10.63;;;2.75;;
77136;SDS011;66102;48.542;-2.970;2023-04-25T00:11:02;8.02;;;2.80;;
77136;SDS011;66102;48.542;-2.970;2023-04-25T00:13:28;10.60;;;3.08;;
77136;SDS011;66102;48.542;-2.970;2023-04-25T00:15:55;11.98;;;3.03;;
77136;SDS011;66102;48.542;-2.970;2023-04-25T00:18:25;10.82;;;2.80;;
77136;SDS011;66102;48.542;-2.970;2023-04-25T00:20:53;12.10;;;3.13;;
77136;SDS011;66102;48.542;-2.970;2023-04-25T00:23:20;9.77;;;3.15;;
77136;SDS011;66102;48.542;-2.970;2023-04-25T00:25:48;10.07;;;3.20;;
77136;SDS011;66102;48.542;-2.970;2023-04-25T00:28:14;10.40;;;3.33;;
77136;SDS011;66102;48.542;-2.970;2023-04-25T00:30:41;12.50;;;2.50;;
77136;SDS011;66102;48.542;-2.970;2023-04-25T00:33:07;8.50;;;3.08;;
77136;SDS011;66102;48.542;-2.970;2023-04-25T00:35:33;7.85;;;2.47;;
77136;SDS011;66102;48.542;-2.970;2023-04-25T00:37:59;10.13;;;2.85;;
77136;SDS011;66102;48.542;-2.970;2023-04-25T00:40:25;9.25;;;3.55;;
77136;SDS011;66102;48.542;-2.970;2023-04-25T00:42:52;7.78;;;2.67;;
77136;SDS011;66102;48.542;-2.970;2023-04-25T00:45:18;8.63;;;2.55;;
77136;SDS011;66102;48.542;-2.970;2023-04-25T00:47:45;7.40;;;2.97;;
77136;SDS011;66102;48.542;-2.970;2023-04-25T00:50:11;11.25;;;3.13;;
77136;SDS011;66102;48.542;-2.970;2023-04-25T00:52:38;8.57;;;2.85;;
77136;SDS011;66102;48.542;-2.970;2023-04-25T00:55:06;10.50;;;2.70;;
77136;SDS011;66102;48.542;-2.970;2023-04-25T00:57:33;8.05;;;2.80;;
77136;SDS011;66102;48.542;-2.970;2023-04-25T00:59:59;9.35;;;3.25;;
77136;SDS011;66102;48.542;-2.970;2023-04-25T01:02:25;6.78;;;2.35;;
77136;SDS011;66102;48.542;-2.970;2023-04-25T01:04:52;8.38;;;3.03;;
77136;SDS011;66102;48.542;-2.970;2023-04-25T01:07:18;8.15;;;3.03;;
77136;SDS011;66102;48.542;-2.970;2023-04-25T01:09:44;11.43;;;3.78;;
77136;SDS011;66102;48.542;-2.970;2023-04-25T01:12:11;9.38;;;2.88;;
77136;SDS011;66102;48.542;-2.970;2023-04-25T01:14:37;9.90;;;3.20;;
77136;SDS011;66102;48.542;-2.970;2023-04-25T01:17:04;7.50;;;2.67;;
77136;SDS011;66102;48.542;-2.970;2023-04-25T01:19:30;10.23;;;3.25;;
77136;SDS011;66102;48.542;-2.970;2023-04-25T01:21:56;11.02;;;3.33;;
77136;SDS011;66102;48.542;-2.970;2023-04-25T01:24:22;11.02;;;3.28;;
77136;SDS011;66102;48.542;-2.970;2023-04-25T01:26:48;10.82;;;3.03;;
77136;SDS011;66102;48.542;-2.970;2023-04-25T01:29:19;8.02;;;2.75;;
77136;SDS011;66102;48.542;-2.970;2023-04-25T01:31:45;9.65;;;2.78;;
77136;SDS011;66102;48.542;-2.970;2023-04-25T01:34:12;7.80;;;2.58;;
77136;SDS011;66102;48.542;-2.970;2023-04-25T01:36:38;9.52;;;2.85;;
77136;SDS011;66102;48.542;-2.970;2023-04-25T01:39:05;7.50;;;2.75;;
77136;SDS011;66102;48.542;-2.970;2023-04-25T01:41:31;8.00;;;2.78;;
77136;SDS011;66102;48.542;-2.970;2023-04-25T01:43:57;6.55;;;2.60;;
77136;SDS011;66102;48.542;-2.970;2023-04-25T01:46:23;6.57;;;2.67;;
77136;SDS011;66102;48.542;-2.970;2023-04-25T01:48:50;6.57;;;2.60;;
77136;SDS011;66102;48.542;-2.970;2023-04-25T01:51:16;7.75;;;3.60;;
77136;SDS011;66102;48.542;-2.970;2023-04-25T01:53:42;9.43;;;3.60;;
77136;SDS011;66102;48.542;-2.970;2023-04-25T01:56:08;8.98;;;2.90;;
77136;SDS011;66102;48.542;-2.970;2023-04-25T01:58:35;7.93;;;3.40;;
77136;SDS011;66102;48.542;-2.970;2023-04-25T02:01:01;9.70;;;2.53;;
77136;SDS011;66102;48.542;-2.970;2023-04-25T02:03:27;9.10;;;3.00;;
77136;SDS011;66102;48.542;-2.970;2023-04-25T02:05:53;9.30;;;3.00;;
77136;SDS011;66102;48.542;-2.970;2023-04-25T02:08:19;7.88;;;3.17;;
77136;SDS011;66102;48.542;-2.970;2023-04-25T02:10:45;7.45;;;2.92;;
77136;SDS011;66102;48.542;-2.970;2023-04-25T02:13:11;7.80;;;3.03;;
77136;SDS011;66102;48.542;-2.970;2023-04-25T02:15:37;7.38;;;2.80;;
77136;SDS011;66102;48.542;-2.970;2023-04-25T02:18:03;6.32;;;2.17;;
77136;SDS011;66102;48.542;-2.970;2023-04-25T02:20:31;8.88;;;2.97;;
77136;SDS011;66102;48.542;-2.970;2023-04-25T02:22:57;10.25;;;2.80;;
77136;SDS011;66102;48.542;-2.970;2023-04-25T02:25:23;6.18;;;2.63;;
77136;SDS011;66102;48.542;-2.970;2023-04-25T02:27:49;7.82;;;2.80;;
77136;SDS011;66102;48.542;-2.970;2023-04-25T02:30:16;7.32;;;2.83;;
77136;SDS011;66102;48.542;-2.970;2023-04-25T02:32:42;7.90;;;3.47;;
77136;SDS011;66102;48.542;-2.970;2023-04-25T02:35:08;10.48;;;3.20;;
77136;SDS011;66102;48.542;-2.970;2023-04-25T02:37:35;8.10;;;2.92;;
77136;SDS011;66102;48.542;-2.970;2023-04-25T02:40:02;6.38;;;3.00;;
77136;SDS011;66102;48.542;-2.970;2023-04-25T02:42:28;13.05;;;3.50;;
77136;SDS011;66102;48.542;-2.970;2023-04-25T02:44:54;6.75;;;3.00;;
77136;SDS011;66102;48.542;-2.970;2023-04-25T02:47:20;9.40;;;3.47;;
77136;SDS011;66102;48.542;-2.970;2023-04-25T02:49:46;8.85;;;3.60;;
77136;SDS011;66102;48.542;-2.970;2023-04-25T02:52:13;8.05;;;3.80;;
77136;SDS011;66102;48.542;-2.970;2023-04-25T02:54:39;7.50;;;3.25;;
77136;SDS011;66102;48.542;-2.970;2023-04-25T02:57:06;7.18;;;3.10;;
77136;SDS011;66102;48.542;-2.970;2023-04-25T02:59:32;5.72;;;2.63;;
77136;SDS011;66102;48.542;-2.970;2023-04-25T03:01:58;7.68;;;2.80;;
77136;SDS011;66102;48.542;-2.970;2023-04-25T03:04:24;9.45;;;3.05;;
77136;SDS011;66102;48.542;-2.970;2023-04-25T03:06:50;9.23;;;3.38;;
77136;SDS011;66102;48.542;-2.970;2023-04-25T03:09:16;7.43;;;2.90;;
77136;SDS011;66102;48.542;-2.970;2023-04-25T03:11:43;9.05;;;3.20;;
77136;SDS011;66102;48.542;-2.970;2023-04-25T03:14:10;8.57;;;3.53;;
77136;SDS011;66102;48.542;-2.970;2023-04-25T03:16:36;8.20;;;3.03;;
77136;SDS011;66102;48.542;-2.970;2023-04-25T03:19:02;6.78;;;2.95;;
77136;SDS011;66102;48.542;-2.970;2023-04-25T03:21:29;11.02;;;3.35;;
77136;SDS011;66102;48.542;-2.970;2023-04-25T03:23:56;8.38;;;2.78;;
77136;SDS011;66102;48.542;-2.970;2023-04-25T03:26:23;8.20;;;3.13;;
77136;SDS011;66102;48.542;-2.970;2023-04-25T03:28:49;8.50;;;3.38;;
77136;SDS011;66102;48.542;-2.970;2023-04-25T03:31:15;8.55;;;3.33;;
77136;SDS011;66102;48.542;-2.970;2023-04-25T03:33:41;6.05;;;2.85;;
77136;SDS011;66102;48.542;-2.970;2023-04-25T03:36:07;6.68;;;2.67;;
77136;SDS011;66102;48.542;-2.970;2023-04-25T03:38:33;8.15;;;3.10;;
77136;SDS011;66102;48.542;-2.970;2023-04-25T03:41:00;8.57;;;2.70;;
77136;SDS011;66102;48.542;-2.970;2023-04-25T03:43:26;5.70;;;2.70;;
77136;SDS011;66102;48.542;-2.970;2023-04-25T03:45:52;5.85;;;2.80;;
77136;SDS011;66102;48.542;-2.970;2023-04-25T03:48:18;8.57;;;3.33;;
77136;SDS011;66102;48.542;-2.970;2023-04-25T03:50:49;7.00;;;2.97;;
77136;SDS011;66102;48.542;-2.970;2023-04-25T03:53:15;5.57;;;2.75;;
77136;SDS011;66102;48.542;-2.970;2023-04-25T03:55:41;5.90;;;3.20;;
77136;SDS011;66102;48.542;-2.970;2023-04-25T03:58:07;6.72;;;3.25;;
77136;SDS011;66102;48.542;-2.970;2023-04-25T04:00:34;7.95;;;3.30;;
77136;SDS011;66102;48.542;-2.970;2023-04-25T04:03:00;7.90;;;3.03;;
77136;SDS011;66102;48.542;-2.970;2023-04-25T04:05:26;9.00;;;3.42;;
77136;SDS011;66102;48.542;-2.970;2023-04-25T04:07:52;6.90;;;3.30;;
77136;SDS011;66102;48.542;-2.970;2023-04-25T04:10:18;11.65;;;3.42;;
77136;SDS011;66102;48.542;-2.970;2023-04-25T04:12:45;9.77;;;3.58;;
77136;SDS011;66102;48.542;-2.970;2023-04-25T04:15:11;7.55;;;3.15;;
77136;SDS011;66102;48.542;-2.970;2023-04-25T04:17:37;7.65;;;3.30;;
77136;SDS011;66102;48.542;-2.970;2023-04-25T04:20:03;7.65;;;2.85;;
77136;SDS011;66102;48.542;-2.970;2023-04-25T04:22:30;9.05;;;3.55;;
77136;SDS011;66102;48.542;-2.970;2023-04-25T04:24:56;10.45;;;3.40;;
77136;SDS011;66102;48.542;-2.970;2023-04-25T04:27:22;7.85;;;3.30;;
77136;SDS011;66102;48.542;-2.970;2023-04-25T04:29:48;8.07;;;3.70;;
77136;SDS011;66102;48.542;-2.970;2023-04-25T04:32:17;6.97;;;2.90;;
77136;SDS011;66102;48.542;-2.970;2023-04-25T04:34:43;9.18;;;3.35;;
77136;SDS011;66102;48.542;-2.970;2023-04-25T04:37:09;8.75;;;3.58;;
77136;SDS011;66102;48.542;-2.970;2023-04-25T04:39:38;6.75;;;2.80;;
77136;SDS011;66102;48.542;-2.970;2023-04-25T04:42:04;7.05;;;3.03;;
77136;SDS011;66102;48.542;-2.970;2023-04-25T04:44:30;7.72;;;3.30;;
77136;SDS011;66102;48.542;-2.970;2023-04-25T04:47:00;8.00;;;3.70;;
77136;SDS011;66102;48.542;-2.970;2023-04-25T04:49:27;7.47;;;3.17;;
77136;SDS011;66102;48.542;-2.970;2023-04-25T04:51:53;8.18;;;3.78;;
77136;SDS011;66102;48.542;-2.970;2023-04-25T04:54:19;8.80;;;3.40;;
77136;SDS011;66102;48.542;-2.970;2023-04-25T04:56:45;10.38;;;3.50;;
77136;SDS011;66102;48.542;-2.970;2023-04-25T04:59:11;9.50;;;4.05;;
77136;SDS011;66102;48.542;-2.970;2023-04-25T05:01:37;6.88;;;3.47;;
77136;SDS011;66102;48.542;-2.970;2023-04-25T05:04:03;8.48;;;3.60;;
77136;SDS011;66102;48.542;-2.970;2023-04-25T05:06:29;10.15;;;3.92;;
77136;SDS011;66102;48.542;-2.970;2023-04-25T05:08:56;10.75;;;4.15;;
77136;SDS011;66102;48.542;-2.970;2023-04-25T05:11:22;8.57;;;3.40;;
77136;SDS011;66102;48.542;-2.970;2023-04-25T05:13:52;10.50;;;3.45;;
77136;SDS011;66102;48.542;-2.970;2023-04-25T05:16:18;8.15;;;3.38;;
77136;SDS011;66102;48.542;-2.970;2023-04-25T05:18:45;8.20;;;3.13;;
77136;SDS011;66102;48.542;-2.970;2023-04-25T05:21:11;11.13;;;3.38;;
77136;SDS011;66102;48.542;-2.970;2023-04-25T05:23:37;7.50;;;3.83;;
77136;SDS011;66102;48.542;-2.970;2023-04-25T05:26:03;9.52;;;3.40;;
77136;SDS011;66102;48.542;-2.970;2023-04-25T05:28:29;7.95;;;3.45;;
77136;SDS011;66102;48.542;-2.970;2023-04-25T05:30:55;9.77;;;3.08;;
77136;SDS011;66102;48.542;-2.970;2023-04-25T05:33:21;8.30;;;3.65;;
77136;SDS011;66102;48.542;-2.970;2023-04-25T05:35:47;6.13;;;3.17;;
77136;SDS011;66102;48.542;-2.970;2023-04-25T05:38:14;8.07;;;3.20;;
77136;SDS011;66102;48.542;-2.970;2023-04-25T05:40:40;7.55;;;2.95;;
77136;SDS011;66102;48.542;-2.970;2023-04-25T05:43:06;8.73;;;3.55;;
77136;SDS011;66102;48.542;-2.970;2023-04-25T05:45:32;8.43;;;3.20;;
77136;SDS011;66102;48.542;-2.970;2023-04-25T05:47:58;8.32;;;3.70;;
77136;SDS011;66102;48.542;-2.970;2023-04-25T05:50:24;8.52;;;3.03;;
77136;SDS011;66102;48.542;-2.970;2023-04-25T05:52:50;11.50;;;3.60;;
77136;SDS011;66102;48.542;-2.970;2023-04-25T05:55:16;12.38;;;3.35;;
77136;SDS011;66102;48.542;-2.970;2023-04-25T05:57:43;7.40;;;3.47;;
77136;SDS011;66102;48.542;-2.970;2023-04-25T06:00:11;7.45;;;3.13;;
77136;SDS011;66102;48.542;-2.970;2023-04-25T06:02:37;10.40;;;4.55;;
77136;SDS011;66102;48.542;-2.970;2023-04-25T06:05:03;11.88;;;3.67;;
77136;SDS011;66102;48.542;-2.970;2023-04-25T06:07:29;10.48;;;4.13;;
77136;SDS011;66102;48.542;-2.970;2023-04-25T06:09:56;9.30;;;4.20;;
77136;SDS011;66102;48.542;-2.970;2023-04-25T06:12:22;9.30;;;4.15;;
77136;SDS011;66102;48.542;-2.970;2023-04-25T06:14:48;9.50;;;4.50;;
77136;SDS011;66102;48.542;-2.970;2023-04-25T06:17:14;10.30;;;4.35;;
77136;SDS011;66102;48.542;-2.970;2023-04-25T06:19:40;9.27;;;3.67;;
77136;SDS011;66102;48.542;-2.970;2023-04-25T06:22:06;12.35;;;3.88;;
77136;SDS011;66102;48.542;-2.970;2023-04-25T06:24:33;8.27;;;4.15;;
77136;SDS011;66102;48.542;-2.970;2023-04-25T06:26:59;9.10;;;4.25;;
77136;SDS011;66102;48.542;-2.970;2023-04-25T06:29:25;9.40;;;3.67;;
77136;SDS011;66102;48.542;-2.970;2023-04-25T06:31:51;11.45;;;4.47;;
77136;SDS011;66102;48.542;-2.970;2023-04-25T06:34:18;8.35;;;4.13;;
77136;SDS011;66102;48.542;-2.970;2023-04-25T06:36:44;11.15;;;4.10;;
77136;SDS011;66102;48.542;-2.970;2023-04-25T06:39:10;9.55;;;4.45;;
77136;SDS011;66102;48.542;-2.970;2023-04-25T06:41:36;8.20;;;3.50;;
77136;SDS011;66102;48.542;-2.970;2023-04-25T06:44:02;9.52;;;4.40;;
77136;SDS011;66102;48.542;-2.970;2023-04-25T06:46:29;10.80;;;4.25;;
77136;SDS011;66102;48.542;-2.970;2023-04-25T06:48:55;8.02;;;4.07;;
77136;SDS011;66102;48.542;-2.970;2023-04-25T06:51:21;10.00;;;3.92;;
77136;SDS011;66102;48.542;-2.970;2023-04-25T06:53:49;8.63;;;4.53;;
77136;SDS011;66102;48.542;-2.970;2023-04-25T06:56:21;8.23;;;4.13;;
77136;SDS011;66102;48.542;-2.970;2023-04-25T06:58:48;8.25;;;4.03;;
77136;SDS011;66102;48.542;-2.970;2023-04-25T07:01:14;8.63;;;4.18;;
77136;SDS011;66102;48.542;-2.970;2023-04-25T07:03:40;9.68;;;5.07;;
77136;SDS011;66102;48.542;-2.970;2023-04-25T07:06:06;9.38;;;4.80;;
77136;SDS011;66102;48.542;-2.970;2023-04-25T07:08:32;9.80;;;4.70;;
77136;SDS011;66102;48.542;-2.970;2023-04-25T07:10:58;8.75;;;4.30;;
77136;SDS011;66102;48.542;-2.970;2023-04-25T07:13:24;10.10;;;4.85;;
77136;SDS011;66102;48.542;-2.970;2023-04-25T07:15:50;11.32;;;4.93;;
77136;SDS011;66102;48.542;-2.970;2023-04-25T07:18:17;7.63;;;4.13;;
77136;SDS011;66102;48.542;-2.970;2023-04-25T07:20:43;11.73;;;4.47;;
77136;SDS011;66102;48.542;-2.970;2023-04-25T07:23:09;8.77;;;4.80;;
77136;SDS011;66102;48.542;-2.970;2023-04-25T07:25:35;12.60;;;4.75;;
77136;SDS011;66102;48.542;-2.970;2023-04-25T07:28:09;10.20;;;4.30;;
77136;SDS011;66102;48.542;-2.970;2023-04-25T07:30:35;9.45;;;4.75;;
77136;SDS011;66102;48.542;-2.970;2023-04-25T07:33:01;9.88;;;4.47;;
77136;SDS011;66102;48.542;-2.970;2023-04-25T07:35:27;8.85;;;3.97;;
77136;SDS011;66102;48.542;-2.970;2023-04-25T07:37:53;11.23;;;3.90;;
77136;SDS011;66102;48.542;-2.970;2023-04-25T07:40:20;9.68;;;4.32;;
77136;SDS011;66102;48.542;-2.970;2023-04-25T07:42:46;13.88;;;4.53;;
77136;SDS011;66102;48.542;-2.970;2023-04-25T07:45:12;10.48;;;5.10;;
77136;SDS011;66102;48.542;-2.970;2023-04-25T07:47:39;9.48;;;4.18;;
77136;SDS011;66102;48.542;-2.970;2023-04-25T07:50:05;8.40;;;2.90;;
77136;SDS011;66102;48.542;-2.970;2023-04-25T07:52:32;12.25;;;3.42;;
77136;SDS011;66102;48.542;-2.970;2023-04-25T07:54:58;10.88;;;3.05;;
77136;SDS011;66102;48.542;-2.970;2023-04-25T07:57:25;7.90;;;2.95;;
77136;SDS011;66102;48.542;-2.970;2023-04-25T07:59:51;11.45;;;2.85;;
77136;SDS011;66102;48.542;-2.970;2023-04-25T08:02:17;7.50;;;2.78;;
77136;SDS011;66102;48.542;-2.970;2023-04-25T08:04:43;11.98;;;2.90;;
77136;SDS011;66102;48.542;-2.970;2023-04-25T08:07:09;8.07;;;2.88;;
77136;SDS011;66102;48.542;-2.970;2023-04-25T08:09:35;7.50;;;2.80;;
77136;SDS011;66102;48.542;-2.970;2023-04-25T08:12:02;10.98;;;3.17;;
77136;SDS011;66102;48.542;-2.970;2023-04-25T08:14:28;10.98;;;3.00;;
77136;SDS011;66102;48.542;-2.970;2023-04-25T08:17:00;7.88;;;2.58;;
77136;SDS011;66102;48.542;-2.970;2023-04-25T08:19:26;9.20;;;3.45;;
77136;SDS011;66102;48.542;-2.970;2023-04-25T08:21:52;9.55;;;3.10;;
77136;SDS011;66102;48.542;-2.970;2023-04-25T08:24:18;15.60;;;2.85;;
77136;SDS011;66102;48.542;-2.970;2023-04-25T08:26:44;11.80;;;3.28;;
77136;SDS011;66102;48.542;-2.970;2023-04-25T08:29:10;10.02;;;3.40;;
77136;SDS011;66102;48.542;-2.970;2023-04-25T08:31:36;8.27;;;3.42;;
77136;SDS011;66102;48.542;-2.970;2023-04-25T08:34:02;7.13;;;2.90;;
77136;SDS011;66102;48.542;-2.970;2023-04-25T08:36:28;10.63;;;3.78;;
77136;SDS011;66102;48.542;-2.970;2023-04-25T08:38:56;8.63;;;3.05;;
77136;SDS011;66102;48.542;-2.970;2023-04-25T08:41:22;10.80;;;3.00;;
77136;SDS011;66102;48.542;-2.970;2023-04-25T08:43:48;10.90;;;3.67;;
77136;SDS011;66102;48.542;-2.970;2023-04-25T08:46:17;11.90;;;3.30;;
77136;SDS011;66102;48.542;-2.970;2023-04-25T08:48:44;6.35;;;2.10;;
77136;SDS011;66102;48.542;-2.970;2023-04-25T08:51:13;7.15;;;2.97;;
77136;SDS011;66102;48.542;-2.970;2023-04-25T08:53:41;7.97;;;2.50;;
77136;SDS011;66102;48.542;-2.970;2023-04-25T08:56:07;8.93;;;2.35;;
77136;SDS011;66102;48.542;-2.970;2023-04-25T08:58:34;10.00;;;2.10;;
77136;SDS011;66102;48.542;-2.970;2023-04-25T09:01:01;7.78;;;2.13;;
77136;SDS011;66102;48.542;-2.970;2023-04-25T09:03:27;7.40;;;2.53;;
77136;SDS011;66102;48.542;-2.970;2023-04-25T09:05:53;7.82;;;2.35;;
77136;SDS011;66102;48.542;-2.970;2023-04-25T09:08:20;6.53;;;2.58;;
77136;SDS011;66102;48.542;-2.970;2023-04-25T09:10:46;6.65;;;2.40;;
77136;SDS011;66102;48.542;-2.970;2023-04-25T09:13:13;8.25;;;2.67;;
77136;SDS011;66102;48.542;-2.970;2023-04-25T09:16:01;9.23;;;3.15;;
77136;SDS011;66102;48.542;-2.970;2023-04-25T09:18:27;8.63;;;2.78;;
77136;SDS011;66102;48.542;-2.970;2023-04-25T09:20:54;5.88;;;2.30;;
77136;SDS011;66102;48.542;-2.970;2023-04-25T09:23:22;8.48;;;2.70;;
77136;SDS011;66102;48.542;-2.970;2023-04-25T09:25:49;11.38;;;3.35;;
77136;SDS011;66102;48.542;-2.970;2023-04-25T09:28:15;6.45;;;2.90;;
77136;SDS011;66102;48.542;-2.970;2023-04-25T09:30:42;7.65;;;3.10;;
77136;SDS011;66102;48.542;-2.970;2023-04-25T09:33:09;10.52;;;3.33;;
77136;SDS011;66102;48.542;-2.970;2023-04-25T09:35:35;6.60;;;2.67;;
77136;SDS011;66102;48.542;-2.970;2023-04-25T09:38:06;8.07;;;3.10;;
77136;SDS011;66102;48.542;-2.970;2023-04-25T09:40:32;8.18;;;2.95;;
77136;SDS011;66102;48.542;-2.970;2023-04-25T09:42:58;7.40;;;2.78;;
77136;SDS011;66102;48.542;-2.970;2023-04-25T09:45:25;7.00;;;2.63;;
77136;SDS011;66102;48.542;-2.970;2023-04-25T09:47:55;10.98;;;3.28;;
77136;SDS011;66102;48.542;-2.970;2023-04-25T09:50:22;8.57;;;3.20;;
77136;SDS011;66102;48.542;-2.970;2023-04-25T09:53:02;7.32;;;2.55;;
77136;SDS011;66102;48.542;-2.970;2023-04-25T09:55:31;6.78;;;2.63;;
77136;SDS011;66102;48.542;-2.970;2023-04-25T09:57:57;6.88;;;2.70;;
77136;SDS011;66102;48.542;-2.970;2023-04-25T10:00:26;7.93;;;2.70;;
77136;SDS011;66102;48.542;-2.970;2023-04-25T10:02:52;9.32;;;2.80;;
77136;SDS011;66102;48.542;-2.970;2023-04-25T10:05:20;8.55;;;2.40;;
77136;SDS011;66102;48.542;-2.970;2023-04-25T10:07:46;6.18;;;2.58;;
77136;SDS011;66102;48.542;-2.970;2023-04-25T10:10:12;6.22;;;2.28;;
77136;SDS011;66102;48.542;-2.970;2023-04-25T10:12:38;8.98;;;3.25;;
77136;SDS011;66102;48.542;-2.970;2023-04-25T10:15:05;9.13;;;2.47;;
77136;SDS011;66102;48.542;-2.970;2023-04-25T10:17:33;6.95;;;2.55;;
77136;SDS011;66102;48.542;-2.970;2023-04-25T10:20:01;8.02;;;2.75;;
77136;SDS011;66102;48.542;-2.970;2023-04-25T10:22:35;9.38;;;2.63;;
77136;SDS011;66102;48.542;-2.970;2023-04-25T10:25:02;9.00;;;2.45;;
77136;SDS011;66102;48.542;-2.970;2023-04-25T10:27:29;11.15;;;3.13;;
77136;SDS011;66102;48.542;-2.970;2023-04-25T10:30:03;8.65;;;2.75;;
77136;SDS011;66102;48.542;-2.970;2023-04-25T10:32:32;7.32;;;2.42;;
77136;SDS011;66102;48.542;-2.970;2023-04-25T10:35:09;11.05;;;2.53;;
77136;SDS011;66102;48.542;-2.970;2023-04-25T10:37:35;8.80;;;2.80;;
77136;SDS011;66102;48.542;-2.970;2023-04-25T10:40:08;9.07;;;2.70;;
77136;SDS011;66102;48.542;-2.970;2023-04-25T10:42:34;7.00;;;2.30;;
77136;SDS011;66102;48.542;-2.970;2023-04-25T10:45:07;5.85;;;2.00;;
77136;SDS011;66102;48.542;-2.970;2023-04-25T10:47:36;8.20;;;2.70;;
77136;SDS011;66102;48.542;-2.970;2023-04-25T10:50:09;8.02;;;3.22;;
77136;SDS011;66102;48.542;-2.970;2023-04-25T10:52:35;9.20;;;2.67;;
77136;SDS011;66102;48.542;-2.970;2023-04-25T10:55:05;8.35;;;2.00;;
77136;SDS011;66102;48.542;-2.970;2023-04-25T10:57:42;10.32;;;2.88;;
77136;SDS011;66102;48.542;-2.970;2023-04-25T11:00:12;9.23;;;2.72;;
77136;SDS011;66102;48.542;-2.970;2023-04-25T11:02:43;7.60;;;2.83;;
77136;SDS011;66102;48.542;-2.970;2023-04-25T11:07:45;7.70;;;2.42;;
77136;SDS011;66102;48.542;-2.970;2023-04-25T11:10:16;8.80;;;2.58;;
77136;SDS011;66102;48.542;-2.970;2023-04-25T11:12:42;8.82;;;2.40;;
77136;SDS011;66102;48.542;-2.970;2023-04-25T11:15:08;9.45;;;2.97;;
77136;SDS011;66102;48.542;-2.970;2023-04-25T11:17:35;8.18;;;2.90;;
77136;SDS011;66102;48.542;-2.970;2023-04-25T11:20:02;8.75;;;3.00;;
77136;SDS011;66102;48.542;-2.970;2023-04-25T11:22:32;6.80;;;2.97;;
77136;SDS011;66102;48.542;-2.970;2023-04-25T11:25:04;6.47;;;2.65;;
77136;SDS011;66102;48.542;-2.970;2023-04-25T11:27:30;11.40;;;3.08;;
77136;SDS011;66102;48.542;-2.970;2023-04-25T11:29:57;10.95;;;3.65;;
77136;SDS011;66102;48.542;-2.970;2023-04-25T11:32:23;10.00;;;2.80;;
77136;SDS011;66102;48.542;-2.970;2023-04-25T11:34:49;7.85;;;2.83;;
77136;SDS011;66102;48.542;-2.970;2023-04-25T11:37:15;10.65;;;3.03;;
77136;SDS011;66102;48.542;-2.970;2023-04-25T11:39:42;7.95;;;2.75;;
77136;SDS011;66102;48.542;-2.970;2023-04-25T11:42:09;8.48;;;2.72;;
77136;SDS011;66102;48.542;-2.970;2023-04-25T11:44:37;8.73;;;2.70;;
77136;SDS011;66102;48.542;-2.970;2023-04-25T11:47:03;7.35;;;2.88;;
77136;SDS011;66102;48.542;-2.970;2023-04-25T11:49:32;8.48;;;4.57;;
77136;SDS011;66102;48.542;-2.970;2023-04-25T11:52:00;6.38;;;2.78;;
77136;SDS011;66102;48.542;-2.970;2023-04-25T11:54:26;8.85;;;2.88;;
77136;SDS011;66102;48.542;-2.970;2023-04-25T11:56:52;8.35;;;3.70;;
77136;SDS011;66102;48.542;-2.970;2023-04-25T11:59:18;9.68;;;3.53;;
77136;SDS011;66102;48.542;-2.970;2023-04-25T12:01:49;11.55;;;3.63;;
77136;SDS011;66102;48.542;-2.970;2023-04-25T12:04:19;10.80;;;3.55;;
77136;SDS011;66102;48.542;-2.970;2023-04-25T12:06:46;13.18;;;3.72;;
77136;SDS011;66102;48.542;-2.970;2023-04-25T12:09:12;11.40;;;3.50;;
77136;SDS011;66102;48.542;-2.970;2023-04-25T12:11:41;10.80;;;3.90;;
77136;SDS011;66102;48.542;-2.970;2023-04-25T12:14:08;9.95;;;3.30;;
77136;SDS011;66102;48.542;-2.970;2023-04-25T12:16:45;10.57;;;3.13;;
77136;SDS011;66102;48.542;-2.970;2023-04-25T12:19:16;11.48;;;3.95;;
77136;SDS011;66102;48.542;-2.970;2023-04-25T12:21:43;10.70;;;4.10;;
77136;SDS011;66102;48.542;-2.970;2023-04-25T12:24:10;12.40;;;3.58;;
77136;SDS011;66102;48.542;-2.970;2023-04-25T12:26:47;11.05;;;3.55;;
77136;SDS011;66102;48.542;-2.970;2023-04-25T12:29:20;15.65;;;4.10;;
77136;SDS011;66102;48.542;-2.970;2023-04-25T12:31:46;8.65;;;3.53;;
77136;SDS011;66102;48.542;-2.970;2023-04-25T12:34:13;9.95;;;3.00;;
77136;SDS011;66102;48.542;-2.970;2023-04-25T12:36:39;10.30;;;3.15;;
77136;SDS011;66102;48.542;-2.970;2023-04-25T12:39:05;12.93;;;3.47;;
77136;SDS011;66102;48.542;-2.970;2023-04-25T12:41:32;8.35;;;3.35;;
77136;SDS011;66102;48.542;-2.970;2023-04-25T12:43:58;11.95;;;3.60;;
77136;SDS011;66102;48.542;-2.970;2023-04-25T12:46:24;9.60;;;3.30;;
77136;SDS011;66102;48.542;-2.970;2023-04-25T12:48:50;11.18;;;4.00;;
77136;SDS011;66102;48.542;-2.970;2023-04-25T12:51:16;11.90;;;3.65;;
77136;SDS011;66102;48.542;-2.970;2023-04-25T12:53:42;10.30;;;3.65;;
77136;SDS011;66102;48.542;-2.970;2023-04-25T12:56:08;9.38;;;3.67;;
77136;SDS011;66102;48.542;-2.970;2023-04-25T12:58:35;9.63;;;3.92;;
77136;SDS011;66102;48.542;-2.970;2023-04-25T13:01:01;11.88;;;3.78;;
77136;SDS011;66102;48.542;-2.970;2023-04-25T13:03:27;14.68;;;3.58;;
77136;SDS011;66102;48.542;-2.970;2023-04-25T13:05:53;7.18;;;3.13;;
77136;SDS011;66102;48.542;-2.970;2023-04-25T13:08:19;11.35;;;4.45;;
77136;SDS011;66102;48.542;-2.970;2023-04-25T13:10:45;9.15;;;3.53;;
77136;SDS011;66102;48.542;-2.970;2023-04-25T13:13:11;11.27;;;3.60;;
77136;SDS011;66102;48.542;-2.970;2023-04-25T13:15:37;10.70;;;3.58;;
77136;SDS011;66102;48.542;-2.970;2023-04-25T13:18:04;10.15;;;3.08;;
77136;SDS011;66102;48.542;-2.970;2023-04-25T13:20:33;14.30;;;3.97;;
77136;SDS011;66102;48.542;-2.970;2023-04-25T13:22:59;12.65;;;3.53;;
77136;SDS011;66102;48.542;-2.970;2023-04-25T13:25:25;11.85;;;3.45;;
77136;SDS011;66102;48.542;-2.970;2023-04-25T13:27:51;8.77;;;3.28;;
77136;SDS011;66102;48.542;-2.970;2023-04-25T13:30:17;9.48;;;3.92;;
77136;SDS011;66102;48.542;-2.970;2023-04-25T13:32:43;8.73;;;3.42;;
77136;SDS011;66102;48.542;-2.970;2023-04-25T13:35:10;7.75;;;3.08;;
77136;SDS011;66102;48.542;-2.970;2023-04-25T13:37:37;8.05;;;3.78;;
77136;SDS011;66102;48.542;-2.970;2023-04-25T13:40:04;14.10;;;3.83;;
77136;SDS011;66102;48.542;-2.970;2023-04-25T13:42:31;11.35;;;3.92;;
77136;SDS011;66102;48.542;-2.970;2023-04-25T13:44:57;11.63;;;3.63;;
77136;SDS011;66102;48.542;-2.970;2023-04-25T13:47:23;10.73;;;4.07;;
77136;SDS011;66102;48.542;-2.970;2023-04-25T13:49:49;12.38;;;3.78;;
77136;SDS011;66102;48.542;-2.970;2023-04-25T13:52:16;9.55;;;3.42;;
77136;SDS011;66102;48.542;-2.970;2023-04-25T13:54:42;10.48;;;3.42;;
77136;SDS011;66102;48.542;-2.970;2023-04-25T13:57:11;10.63;;;3.70;;
77136;SDS011;66102;48.542;-2.970;2023-04-25T13:59:38;10.40;;;3.55;;
77136;SDS011;66102;48.542;-2.970;2023-04-25T14:02:04;11.95;;;3.80;;
77136;SDS011;66102;48.542;-2.970;2023-04-25T14:04:30;11.05;;;3.60;;
77136;SDS011;66102;48.542;-2.970;2023-04-25T14:06:56;14.82;;;4.07;;
77136;SDS011;66102;48.542;-2.970;2023-04-25T14:09:22;9.30;;;3.20;;
77136;SDS011;66102;48.542;-2.970;2023-04-25T14:11:53;9.05;;;3.50;;
77136;SDS011;66102;48.542;-2.970;2023-04-25T14:14:20;13.20;;;3.47;;
77136;SDS011;66102;48.542;-2.970;2023-04-25T14:16:47;9.00;;;3.40;;
77136;SDS011;66102;48.542;-2.970;2023-04-25T14:19:14;13.80;;;3.72;;
77136;SDS011;66102;48.542;-2.970;2023-04-25T14:21:40;10.13;;;3.50;;
77136;SDS011;66102;48.542;-2.970;2023-04-25T14:24:06;9.00;;;3.42;;
77136;SDS011;66102;48.542;-2.970;2023-04-25T14:26:35;8.02;;;3.50;;
77136;SDS011;66102;48.542;-2.970;2023-04-25T14:29:04;11.98;;;4.28;;
77136;SDS011;66102;48.542;-2.970;2023-04-25T14:31:31;12.70;;;3.78;;